sensor_id;sensor_type;location;lat;lon;timestamp;pressure;altitude;pressure_sealevel;temperature;humidity
39789;BME280;25478;42.626;23.320;2022-11-20T00:00:53;92394.91;;;16.88;56.84
39789;BME280;25478;42.626;23.320;2022-11-20T00:03:19;92392.69;;;16.86;56.84
39789;BME280;25478;42.626;23.320;2022-11-20T00:05:44;92399.91;;;16.86;57.04
39789;BME280;25478;42.626;23.320;2022-11-20T00:08:10;92399.03;;;16.89;57.21
39789;BME280;25478;42.626;23.320;2022-11-20T00:10:36;92436.25;;;16.89;57.28
39789;BME280;25478;42.626;23.320;2022-11-20T00:13:02;92394.47;;;16.89;57.23
39789;BME280;25478;42.626;23.320;2022-11-20T00:15:27;92393.72;;;16.89;57.16
39789;BME280;25478;42.626;23.320;2022-11-20T00:17:53;92417.66;;;16.89;57.34
39789;BME280;25478;42.626;23.320;2022-11-20T00:20:18;92377.91;;;16.85;57.69
39789;BME280;25478;42.626;23.320;2022-11-20T00:22:44;92387.81;;;16.85;57.56
39789;BME280;25478;42.626;23.320;2022-11-20T00:25:10;92367.72;;;16.84;57.42
39789;BME280;25478;42.626;23.320;2022-11-20T00:27:35;92344.53;;;16.84;57.29
39789;BME280;25478;42.626;23.320;2022-11-20T00:30:01;92368.88;;;16.83;57.34
39789;BME280;25478;42.626;23.320;2022-11-20T00:32:26;92348.97;;;16.87;56.71
39789;BME280;25478;42.626;23.320;2022-11-20T00:34:51;92353.84;;;16.89;56.65
39789;BME280;25478;42.626;23.320;2022-11-20T00:37:17;92369.41;;;16.91;56.57
39789;BME280;25478;42.626;23.320;2022-11-20T00:39:42;92392.47;;;16.94;56.52
39789;BME280;25478;42.626;23.320;2022-11-20T00:42:08;92386.41;;;16.93;56.53
39789;BME280;25478;42.626;23.320;2022-11-20T00:44:33;92397.78;;;16.94;56.07
39789;BME280;25478;42.626;23.320;2022-11-20T00:46:59;92373.31;;;16.99;55.30
39789;BME280;25478;42.626;23.320;2022-11-20T00:49:24;92380.84;;;17.00;55.35
39789;BME280;25478;42.626;23.320;2022-11-20T00:51:50;92384.56;;;17.03;55.10
39789;BME280;25478;42.626;23.320;2022-11-20T00:54:15;92392.84;;;17.05;54.90
39789;BME280;25478;42.626;23.320;2022-11-20T00:56:41;92407.22;;;17.07;54.41
39789;BME280;25478;42.626;23.320;2022-11-20T00:59:08;92384.09;;;17.17;54.17
39789;BME280;25478;42.626;23.320;2022-11-20T01:01:36;92408.75;;;17.17;54.18
39789;BME280;25478;42.626;23.320;2022-11-20T01:04:01;92405.81;;;17.15;54.27
39789;BME280;25478;42.626;23.320;2022-11-20T01:06:33;92392.16;;;17.13;54.23
39789;BME280;25478;42.626;23.320;2022-11-20T01:09:05;92399.84;;;17.11;54.68
39789;BME280;25478;42.626;23.320;2022-11-20T01:11:34;92390.81;;;17.09;55.01
39789;BME280;25478;42.626;23.320;2022-11-20T01:14:02;92402.00;;;17.04;54.85
39789;BME280;25478;42.626;23.320;2022-11-20T01:16:31;92386.78;;;17.04;54.74
39789;BME280;25478;42.626;23.320;2022-11-20T01:18:59;92390.19;;;17.05;55.00
39789;BME280;25478;42.626;23.320;2022-11-20T01:21:27;92396.69;;;17.04;54.88
39789;BME280;25478;42.626;23.320;2022-11-20T01:23:53;92348.81;;;17.04;54.83
39789;BME280;25478;42.626;23.320;2022-11-20T01:26:22;92363.28;;;17.03;54.86
39789;BME280;25478;42.626;23.320;2022-11-20T01:28:49;92341.19;;;16.93;54.75
39789;BME280;25478;42.626;23.320;2022-11-20T01:31:20;92376.88;;;17.05;55.01
39789;BME280;25478;42.626;23.320;2022-11-20T01:33:48;92369.03;;;17.01;54.98
39789;BME280;25478;42.626;23.320;2022-11-20T01:36:14;92357.53;;;17.04;55.14
39789;BME280;25478;42.626;23.320;2022-11-20T01:38:41;92333.00;;;17.00;55.16
39789;BME280;25478;42.626;23.320;2022-11-20T01:41:07;92338.75;;;16.99;55.05
39789;BME280;25478;42.626;23.320;2022-11-20T01:43:33;92333.09;;;16.97;55.12
39789;BME280;25478;42.626;23.320;2022-11-20T01:46:15;92350.53;;;16.98;55.13
39789;BME280;25478;42.626;23.320;2022-11-20T01:51:29;92329.09;;;16.92;54.77
39789;BME280;25478;42.626;23.320;2022-11-20T01:53:59;92342.69;;;16.94;54.84
39789;BME280;25478;42.626;23.320;2022-11-20T01:56:26;92324.44;;;16.83;54.91
39789;BME280;25478;42.626;23.320;2022-11-20T01:58:56;92319.22;;;16.80;54.36
39789;BME280;25478;42.626;23.320;2022-11-20T02:01:23;92348.88;;;16.91;54.56
39789;BME280;25478;42.626;23.320;2022-11-20T02:03:49;92357.47;;;16.95;54.00
39789;BME280;25478;42.626;23.320;2022-11-20T02:06:35;92354.06;;;16.95;54.39
39789;BME280;25478;42.626;23.320;2022-11-20T02:09:03;92354.50;;;16.93;54.27
39789;BME280;25478;42.626;23.320;2022-11-20T02:11:30;92364.09;;;16.91;54.37
39789;BME280;25478;42.626;23.320;2022-11-20T02:13:56;92382.34;;;16.88;54.47
39789;BME280;25478;42.626;23.320;2022-11-20T02:16:29;92344.97;;;16.83;54.30
39789;BME280;25478;42.626;23.320;2022-11-20T02:18:57;92373.97;;;16.90;54.38
39789;BME280;25478;42.626;23.320;2022-11-20T02:21:28;92372.47;;;16.89;54.48
39789;BME280;25478;42.626;23.320;2022-11-20T02:24:09;92369.19;;;16.85;54.63
39789;BME280;25478;42.626;23.320;2022-11-20T02:26:41;92373.56;;;16.79;54.72
39789;BME280;25478;42.626;23.320;2022-11-20T02:29:08;92365.59;;;16.79;55.12
39789;BME280;25478;42.626;23.320;2022-11-20T02:31:36;92366.47;;;16.76;55.41
39789;BME280;25478;42.626;23.320;2022-11-20T02:34:02;92384.41;;;16.72;55.30
39789;BME280;25478;42.626;23.320;2022-11-20T02:36:28;92363.25;;;16.68;55.52
39789;BME280;25478;42.626;23.320;2022-11-20T02:38:56;92362.94;;;16.66;55.91
39789;BME280;25478;42.626;23.320;2022-11-20T02:41:21;92376.63;;;16.65;56.05
39789;BME280;25478;42.626;23.320;2022-11-20T02:43:55;92388.88;;;16.62;56.22
39789;BME280;25478;42.626;23.320;2022-11-20T02:46:20;92379.84;;;16.59;56.59
39789;BME280;25478;42.626;23.320;2022-11-20T02:48:46;92407.59;;;16.58;56.85
39789;BME280;25478;42.626;23.320;2022-11-20T02:51:11;92396.97;;;16.58;57.18
39789;BME280;25478;42.626;23.320;2022-11-20T02:53:37;92401.31;;;16.52;57.79
39789;BME280;25478;42.626;23.320;2022-11-20T02:56:02;92405.16;;;16.51;58.11
39789;BME280;25478;42.626;23.320;2022-11-20T02:58:28;92394.53;;;16.51;58.30
39789;BME280;25478;42.626;23.320;2022-11-20T03:00:53;92370.44;;;16.33;58.70
39789;BME280;25478;42.626;23.320;2022-11-20T03:03:19;92416.00;;;16.44;59.08
39789;BME280;25478;42.626;23.320;2022-11-20T03:05:45;92398.16;;;16.45;59.06
39789;BME280;25478;42.626;23.320;2022-11-20T03:08:10;92421.00;;;16.42;58.96
39789;BME280;25478;42.626;23.320;2022-11-20T03:10:36;92419.50;;;16.41;59.18
39789;BME280;25478;42.626;23.320;2022-11-20T03:13:01;92394.97;;;16.37;59.45
39789;BME280;25478;42.626;23.320;2022-11-20T03:15:29;92395.09;;;16.33;59.68
39789;BME280;25478;42.626;23.320;2022-11-20T03:17:55;92410.06;;;16.27;60.17
39789;BME280;25478;42.626;23.320;2022-11-20T03:20:21;92432.16;;;16.24;60.24
39789;BME280;25478;42.626;23.320;2022-11-20T03:22:47;92437.13;;;16.22;60.15
39789;BME280;25478;42.626;23.320;2022-11-20T03:25:12;92419.72;;;16.21;60.42
39789;BME280;25478;42.626;23.320;2022-11-20T03:27:38;92427.38;;;16.19;60.63
39789;BME280;25478;42.626;23.320;2022-11-20T03:30:04;92428.53;;;16.18;60.76
39789;BME280;25478;42.626;23.320;2022-11-20T03:32:31;92423.34;;;16.15;60.47
39789;BME280;25478;42.626;23.320;2022-11-20T03:34:56;92419.91;;;16.14;60.52
39789;BME280;25478;42.626;23.320;2022-11-20T03:37:22;92428.53;;;16.18;60.44
39789;BME280;25478;42.626;23.320;2022-11-20T03:39:47;92421.44;;;16.15;60.80
39789;BME280;25478;42.626;23.320;2022-11-20T03:42:13;92417.59;;;16.16;60.55
39789;BME280;25478;42.626;23.320;2022-11-20T03:44:57;92420.25;;;16.16;60.79
39789;BME280;25478;42.626;23.320;2022-11-20T03:47:22;92427.88;;;16.14;60.69
39789;BME280;25478;42.626;23.320;2022-11-20T03:49:48;92447.56;;;16.17;60.51
39789;BME280;25478;42.626;23.320;2022-11-20T03:52:13;92409.53;;;16.07;60.46
39789;BME280;25478;42.626;23.320;2022-11-20T03:54:39;92444.47;;;16.18;60.83
39789;BME280;25478;42.626;23.320;2022-11-20T03:57:04;92431.72;;;16.13;60.99
39789;BME280;25478;42.626;23.320;2022-11-20T03:59:30;92445.72;;;16.14;61.03
39789;BME280;25478;42.626;23.320;2022-11-20T04:01:55;92443.81;;;16.14;60.67
39789;BME280;25478;42.626;23.320;2022-11-20T04:04:21;92447.25;;;16.15;60.77
39789;BME280;25478;42.626;23.320;2022-11-20T04:06:46;92457.09;;;16.14;60.73
39789;BME280;25478;42.626;23.320;2022-11-20T04:09:12;92432.78;;;16.16;60.45
39789;BME280;25478;42.626;23.320;2022-11-20T04:11:39;92451.78;;;16.14;60.41
39789;BME280;25478;42.626;23.320;2022-11-20T04:14:06;92442.44;;;16.10;60.68
39789;BME280;25478;42.626;23.320;2022-11-20T04:16:35;92447.44;;;16.08;60.77
39789;BME280;25478;42.626;23.320;2022-11-20T04:19:04;92441.78;;;16.05;61.10
39789;BME280;25478;42.626;23.320;2022-11-20T04:21:30;92439.34;;;15.98;61.43
39789;BME280;25478;42.626;23.320;2022-11-20T04:23:56;92445.19;;;15.93;61.75
39789;BME280;25478;42.626;23.320;2022-11-20T04:26:23;92445.19;;;15.93;61.45
39789;BME280;25478;42.626;23.320;2022-11-20T04:28:50;92460.47;;;15.89;61.75
39789;BME280;25478;42.626;23.320;2022-11-20T04:31:21;92487.75;;;15.90;62.21
39789;BME280;25478;42.626;23.320;2022-11-20T04:33:47;92455.13;;;15.76;62.47
39789;BME280;25478;42.626;23.320;2022-11-20T04:36:15;92448.97;;;15.80;62.82
39789;BME280;25478;42.626;23.320;2022-11-20T04:38:41;92448.88;;;15.83;62.84
39789;BME280;25478;42.626;23.320;2022-11-20T04:41:12;92437.09;;;15.84;63.02
39789;BME280;25478;42.626;23.320;2022-11-20T04:43:39;92453.53;;;15.79;63.38
39789;BME280;25478;42.626;23.320;2022-11-20T04:46:04;92447.25;;;15.73;63.53
39789;BME280;25478;42.626;23.320;2022-11-20T04:48:30;92440.13;;;15.70;64.05
39789;BME280;25478;42.626;23.320;2022-11-20T04:50:55;92449.22;;;15.56;63.97
39789;BME280;25478;42.626;23.320;2022-11-20T04:53:22;92467.84;;;15.69;63.52
39789;BME280;25478;42.626;23.320;2022-11-20T04:55:47;92454.06;;;15.74;62.83
39789;BME280;25478;42.626;23.320;2022-11-20T04:58:13;92435.50;;;15.74;62.41
39789;BME280;25478;42.626;23.320;2022-11-20T05:00:39;92448.66;;;15.77;62.57
39789;BME280;25478;42.626;23.320;2022-11-20T05:03:05;92441.75;;;15.80;62.68
39789;BME280;25478;42.626;23.320;2022-11-20T05:05:33;92435.19;;;15.85;62.68
39789;BME280;25478;42.626;23.320;2022-11-20T05:07:58;92439.50;;;15.79;62.97
39789;BME280;25478;42.626;23.320;2022-11-20T05:10:25;92433.88;;;15.76;63.21
39789;BME280;25478;42.626;23.320;2022-11-20T05:12:51;92427.53;;;15.74;63.14
39789;BME280;25478;42.626;23.320;2022-11-20T05:15:16;92445.69;;;15.75;63.22
39789;BME280;25478;42.626;23.320;2022-11-20T05:17:47;92416.56;;;15.72;63.63
39789;BME280;25478;42.626;23.320;2022-11-20T05:20:13;92418.16;;;15.69;63.71
39789;BME280;25478;42.626;23.320;2022-11-20T05:22:38;92426.22;;;15.66;64.09
39789;BME280;25478;42.626;23.320;2022-11-20T05:25:04;92425.06;;;15.67;64.54
39789;BME280;25478;42.626;23.320;2022-11-20T05:27:30;92420.94;;;15.66;64.40
39789;BME280;25478;42.626;23.320;2022-11-20T05:29:55;92354.44;;;15.15;64.69
39789;BME280;25478;42.626;23.320;2022-11-20T05:32:21;92400.59;;;15.59;65.02
39789;BME280;25478;42.626;23.320;2022-11-20T05:34:51;92434.44;;;15.55;65.17
39789;BME280;25478;42.626;23.320;2022-11-20T05:37:16;92410.56;;;15.55;64.81
39789;BME280;25478;42.626;23.320;2022-11-20T05:39:42;92429.78;;;15.59;64.58
39789;BME280;25478;42.626;23.320;2022-11-20T05:42:07;92422.56;;;15.60;64.79
39789;BME280;25478;42.626;23.320;2022-11-20T05:44:51;92416.13;;;15.61;64.56
39789;BME280;25478;42.626;23.320;2022-11-20T05:47:17;92411.97;;;15.60;64.64
39789;BME280;25478;42.626;23.320;2022-11-20T05:49:42;92403.19;;;15.63;64.33
39789;BME280;25478;42.626;23.320;2022-11-20T05:52:08;92400.22;;;15.61;64.64
39789;BME280;25478;42.626;23.320;2022-11-20T05:54:33;92397.47;;;15.64;62.86
39789;BME280;25478;42.626;23.320;2022-11-20T05:56:59;92395.88;;;15.67;62.71
39789;BME280;25478;42.626;23.320;2022-11-20T05:59:25;92408.28;;;15.70;62.61
39789;BME280;25478;42.626;23.320;2022-11-20T06:01:50;92412.03;;;15.72;62.80
39789;BME280;25478;42.626;23.320;2022-11-20T06:04:15;92406.19;;;15.65;62.83
39789;BME280;25478;42.626;23.320;2022-11-20T06:06:41;92408.94;;;15.74;63.05
39789;BME280;25478;42.626;23.320;2022-11-20T06:09:07;92431.00;;;15.71;62.79
39789;BME280;25478;42.626;23.320;2022-11-20T06:11:32;92403.66;;;15.74;63.01
39789;BME280;25478;42.626;23.320;2022-11-20T06:13:57;92401.63;;;15.78;62.61
39789;BME280;25478;42.626;23.320;2022-11-20T06:16:23;92412.44;;;15.71;62.89
39789;BME280;25478;42.626;23.320;2022-11-20T06:18:49;92425.50;;;15.78;62.62
39789;BME280;25478;42.626;23.320;2022-11-20T06:21:17;92403.72;;;15.70;62.78
39789;BME280;25478;42.626;23.320;2022-11-20T06:23:43;92435.94;;;15.85;62.70
39789;BME280;25478;42.626;23.320;2022-11-20T06:26:12;92441.56;;;15.87;62.44
39789;BME280;25478;42.626;23.320;2022-11-20T06:28:37;92437.31;;;15.90;62.51
39789;BME280;25478;42.626;23.320;2022-11-20T06:31:04;92443.25;;;15.94;62.57
39789;BME280;25478;42.626;23.320;2022-11-20T06:33:30;92433.38;;;15.94;62.65
39789;BME280;25478;42.626;23.320;2022-11-20T06:35:58;92428.44;;;16.09;61.99
39789;BME280;25478;42.626;23.320;2022-11-20T06:38:25;92427.38;;;16.19;61.34
39789;BME280;25478;42.626;23.320;2022-11-20T06:40:50;92433.75;;;16.35;60.46
39789;BME280;25478;42.626;23.320;2022-11-20T06:43:16;92429.59;;;16.46;59.77
39789;BME280;25478;42.626;23.320;2022-11-20T06:45:41;92429.47;;;16.63;58.67
39789;BME280;25478;42.626;23.320;2022-11-20T06:48:08;92429.94;;;16.74;57.42
39789;BME280;25478;42.626;23.320;2022-11-20T06:50:33;92432.88;;;16.88;57.17
39789;BME280;25478;42.626;23.320;2022-11-20T06:53:02;92444.09;;;17.05;56.76
39789;BME280;25478;42.626;23.320;2022-11-20T06:55:29;92463.66;;;17.24;56.01
39789;BME280;25478;42.626;23.320;2022-11-20T06:57:55;92453.59;;;17.41;55.36
39789;BME280;25478;42.626;23.320;2022-11-20T07:00:20;92448.94;;;17.54;55.10
39789;BME280;25478;42.626;23.320;2022-11-20T07:02:46;92452.75;;;17.66;54.66
39789;BME280;25478;42.626;23.320;2022-11-20T07:05:11;92462.75;;;17.75;54.51
39789;BME280;25478;42.626;23.320;2022-11-20T07:07:36;92467.63;;;17.76;54.43
39789;BME280;25478;42.626;23.320;2022-11-20T07:10:02;92456.88;;;17.67;54.56
39789;BME280;25478;42.626;23.320;2022-11-20T07:12:28;92454.16;;;17.58;55.23
39789;BME280;25478;42.626;23.320;2022-11-20T07:14:53;92462.06;;;17.49;55.90
39789;BME280;25478;42.626;23.320;2022-11-20T07:17:19;92464.78;;;17.36;56.25
39789;BME280;25478;42.626;23.320;2022-11-20T07:19:44;92462.47;;;17.25;56.49
39789;BME280;25478;42.626;23.320;2022-11-20T07:22:09;92455.75;;;17.21;55.96
39789;BME280;25478;42.626;23.320;2022-11-20T07:24:35;92462.63;;;17.09;56.60
39789;BME280;25478;42.626;23.320;2022-11-20T07:27:00;92468.91;;;17.02;56.48
39789;BME280;25478;42.626;23.320;2022-11-20T07:29:26;92454.03;;;16.92;56.87
39789;BME280;25478;42.626;23.320;2022-11-20T07:31:51;92460.00;;;16.83;57.61
39789;BME280;25478;42.626;23.320;2022-11-20T07:34:17;92463.09;;;16.82;57.72
39789;BME280;25478;42.626;23.320;2022-11-20T07:36:42;92450.75;;;16.75;58.14
39789;BME280;25478;42.626;23.320;2022-11-20T07:39:08;92444.50;;;16.69;58.94
39789;BME280;25478;42.626;23.320;2022-11-20T07:41:33;92446.50;;;16.65;59.39
39789;BME280;25478;42.626;23.320;2022-11-20T07:43:59;92451.47;;;16.63;60.62
39789;BME280;25478;42.626;23.320;2022-11-20T07:46:24;92421.41;;;16.53;60.24
39789;BME280;25478;42.626;23.320;2022-11-20T07:48:50;92434.81;;;16.50;60.25
39789;BME280;25478;42.626;23.320;2022-11-20T07:51:15;92440.34;;;16.43;60.95
39789;BME280;25478;42.626;23.320;2022-11-20T07:53:40;92437.16;;;16.35;62.00
39789;BME280;25478;42.626;23.320;2022-11-20T07:56:06;92424.47;;;16.14;62.46
39789;BME280;25478;42.626;23.320;2022-11-20T07:58:32;92443.22;;;16.23;63.20
39789;BME280;25478;42.626;23.320;2022-11-20T08:01:06;92464.66;;;16.16;63.94
39789;BME280;25478;42.626;23.320;2022-11-20T08:03:32;92446.78;;;16.03;65.02
39789;BME280;25478;42.626;23.320;2022-11-20T08:05:59;92456.22;;;16.04;64.91
39789;BME280;25478;42.626;23.320;2022-11-20T08:08:26;92441.47;;;16.03;65.38
39789;BME280;25478;42.626;23.320;2022-11-20T08:10:51;92448.59;;;16.07;65.56
39789;BME280;25478;42.626;23.320;2022-11-20T08:13:17;92472.28;;;16.14;64.60
39789;BME280;25478;42.626;23.320;2022-11-20T08:16:01;92447.97;;;16.15;64.12
39789;BME280;25478;42.626;23.320;2022-11-20T08:18:26;92457.75;;;16.31;63.30
39789;BME280;25478;42.626;23.320;2022-11-20T08:20:52;92473.69;;;16.44;61.74
39789;BME280;25478;42.626;23.320;2022-11-20T08:23:17;92501.13;;;16.53;61.32
39789;BME280;25478;42.626;23.320;2022-11-20T08:25:43;92497.09;;;16.61;60.76
39789;BME280;25478;42.626;23.320;2022-11-20T08:28:09;92494.03;;;16.76;60.49
39789;BME280;25478;42.626;23.320;2022-11-20T08:30:36;92491.78;;;16.87;60.03
39789;BME280;25478;42.626;23.320;2022-11-20T08:33:04;92488.16;;;16.94;59.85
39789;BME280;25478;42.626;23.320;2022-11-20T08:35:33;92492.94;;;16.99;60.31
39789;BME280;25478;42.626;23.320;2022-11-20T08:38:00;92479.09;;;17.04;60.56
39789;BME280;25478;42.626;23.320;2022-11-20T08:40:25;92492.72;;;17.06;60.17
39789;BME280;25478;42.626;23.320;2022-11-20T08:42:51;92515.06;;;17.08;60.17
39789;BME280;25478;42.626;23.320;2022-11-20T08:45:17;92519.19;;;17.09;60.91
39789;BME280;25478;42.626;23.320;2022-11-20T08:47:44;92530.28;;;17.08;62.96
39789;BME280;25478;42.626;23.320;2022-11-20T08:50:11;92529.31;;;17.02;65.49
39789;BME280;25478;42.626;23.320;2022-11-20T08:52:37;92514.75;;;16.81;67.12
39789;BME280;25478;42.626;23.320;2022-11-20T08:55:03;92525.63;;;16.74;68.55
39789;BME280;25478;42.626;23.320;2022-11-20T08:57:33;92523.66;;;16.61;67.91
39789;BME280;25478;42.626;23.320;2022-11-20T08:59:59;92502.50;;;16.45;68.15
39789;BME280;25478;42.626;23.320;2022-11-20T09:02:25;92523.00;;;16.45;69.28
39789;BME280;25478;42.626;23.320;2022-11-20T09:04:50;92523.53;;;16.40;70.31
39789;BME280;25478;42.626;23.320;2022-11-20T09:07:16;92537.03;;;16.32;72.27
39789;BME280;25478;42.626;23.320;2022-11-20T09:09:41;92527.28;;;16.13;73.68
39789;BME280;25478;42.626;23.320;2022-11-20T09:12:07;92527.56;;;15.90;76.07
39789;BME280;25478;42.626;23.320;2022-11-20T09:14:32;92519.91;;;15.63;78.18
39789;BME280;25478;42.626;23.320;2022-11-20T09:16:58;92514.97;;;15.32;78.60
39789;BME280;25478;42.626;23.320;2022-11-20T09:19:24;92511.28;;;15.13;79.29
39789;BME280;25478;42.626;23.320;2022-11-20T09:21:50;92544.91;;;15.00;79.93
39789;BME280;25478;42.626;23.320;2022-11-20T09:24:16;92529.56;;;14.91;81.32
39789;BME280;25478;42.626;23.320;2022-11-20T09:26:42;92522.84;;;14.87;81.11
39789;BME280;25478;42.626;23.320;2022-11-20T09:29:07;92519.47;;;14.86;81.46
39789;BME280;25478;42.626;23.320;2022-11-20T09:31:33;92510.19;;;14.95;82.39
39789;BME280;25478;42.626;23.320;2022-11-20T09:33:58;92524.34;;;15.04;83.76
39789;BME280;25478;42.626;23.320;2022-11-20T09:36:24;92508.13;;;15.18;84.95
39789;BME280;25478;42.626;23.320;2022-11-20T09:38:49;92499.25;;;15.25;85.87
39789;BME280;25478;42.626;23.320;2022-11-20T09:44:57;92501.56;;;15.39;86.50
39789;BME280;25478;42.626;23.320;2022-11-20T09:55:16;92486.94;;;15.47;88.58
39789;BME280;25478;42.626;23.320;2022-11-20T09:57:44;92490.00;;;15.46;88.61
39789;BME280;25478;42.626;23.320;2022-11-20T10:00:13;92473.44;;;15.42;88.51
39789;BME280;25478;42.626;23.320;2022-11-20T10:03:09;92472.41;;;15.52;88.17
39789;BME280;25478;42.626;23.320;2022-11-20T10:05:45;92467.41;;;15.70;87.69
39789;BME280;25478;42.626;23.320;2022-11-20T10:08:28;92480.81;;;15.80;86.75
39789;BME280;25478;42.626;23.320;2022-11-20T10:11:05;92463.31;;;15.82;87.03
39789;BME280;25478;42.626;23.320;2022-11-20T10:26:51;92452.44;;;16.31;84.07
39789;BME280;25478;42.626;23.320;2022-11-20T10:29:29;92463.16;;;16.27;82.52
39789;BME280;25478;42.626;23.320;2022-11-20T10:32:11;92461.47;;;16.21;82.09
39789;BME280;25478;42.626;23.320;2022-11-20T10:35:04;92472.28;;;16.14;81.92
39789;BME280;25478;42.626;23.320;2022-11-20T10:37:32;92462.50;;;16.11;81.99
39789;BME280;25478;42.626;23.320;2022-11-20T10:42:44;92470.38;;;16.14;83.12
39789;BME280;25478;42.626;23.320;2022-11-20T10:47:47;92479.63;;;16.10;84.23
39789;BME280;25478;42.626;23.320;2022-11-20T10:50:18;92485.34;;;16.08;84.84
39789;BME280;25478;42.626;23.320;2022-11-20T10:55:57;92506.19;;;15.81;86.50
39789;BME280;25478;42.626;23.320;2022-11-20T10:58:45;92496.16;;;15.72;86.40
39789;BME280;25478;42.626;23.320;2022-11-20T11:01:17;92505.66;;;15.57;86.96
39789;BME280;25478;42.626;23.320;2022-11-20T11:03:43;92491.88;;;15.33;87.42
39789;BME280;25478;42.626;23.320;2022-11-20T11:06:21;92507.47;;;15.14;88.39
39789;BME280;25478;42.626;23.320;2022-11-20T11:08:50;92538.94;;;15.12;89.53
39789;BME280;25478;42.626;23.320;2022-11-20T11:11:23;92569.41;;;15.04;91.08
39789;BME280;25478;42.626;23.320;2022-11-20T11:13:50;92562.53;;;14.90;92.05
39789;BME280;25478;42.626;23.320;2022-11-20T11:16:24;92548.81;;;14.59;89.14
39789;BME280;25478;42.626;23.320;2022-11-20T11:18:50;92556.09;;;14.35;89.26
39789;BME280;25478;42.626;23.320;2022-11-20T11:21:25;92556.59;;;14.11;86.79
39789;BME280;25478;42.626;23.320;2022-11-20T11:24:03;92546.16;;;13.84;85.18
39789;BME280;25478;42.626;23.320;2022-11-20T11:26:29;92506.31;;;13.51;86.66
39789;BME280;25478;42.626;23.320;2022-11-20T11:28:57;92541.06;;;13.30;88.28
39789;BME280;25478;42.626;23.320;2022-11-20T11:31:34;92540.63;;;13.08;88.12
39789;BME280;25478;42.626;23.320;2022-11-20T11:34:12;92542.16;;;12.82;88.18
39789;BME280;25478;42.626;23.320;2022-11-20T11:36:39;92532.53;;;12.68;88.29
39789;BME280;25478;42.626;23.320;2022-11-20T11:39:08;92524.75;;;12.57;88.13
39789;BME280;25478;42.626;23.320;2022-11-20T11:41:36;92518.50;;;12.48;87.03
39789;BME280;25478;42.626;23.320;2022-11-20T11:44:23;92511.56;;;12.30;86.63
39789;BME280;25478;42.626;23.320;2022-11-20T11:47:30;92504.66;;;12.09;86.53
39789;BME280;25478;42.626;23.320;2022-11-20T11:58:50;92499.56;;;11.95;88.20
39789;BME280;25478;42.626;23.320;2022-11-20T12:01:27;92482.59;;;11.96;87.99
39789;BME280;25478;42.626;23.320;2022-11-20T12:06:36;92485.16;;;12.03;88.25
39789;BME280;25478;42.626;23.320;2022-11-20T12:09:08;92495.31;;;12.05;87.96
39789;BME280;25478;42.626;23.320;2022-11-20T12:11:54;92508.97;;;11.96;88.25
39789;BME280;25478;42.626;23.320;2022-11-20T12:14:40;92519.25;;;11.87;87.97
39789;BME280;25478;42.626;23.320;2022-11-20T12:17:11;92510.31;;;11.77;89.16
39789;BME280;25478;42.626;23.320;2022-11-20T12:19:37;92523.19;;;11.68;89.78
39789;BME280;25478;42.626;23.320;2022-11-20T12:30:22;92503.94;;;11.37;91.49
39789;BME280;25478;42.626;23.320;2022-11-20T12:43:48;92405.22;;;11.45;90.82
39789;BME280;25478;42.626;23.320;2022-11-20T12:46:46;92383.25;;;11.55;90.00
39789;BME280;25478;42.626;23.320;2022-11-20T12:49:37;92374.78;;;11.71;88.78
39789;BME280;25478;42.626;23.320;2022-11-20T12:55:16;92352.69;;;12.16;87.26
39789;BME280;25478;42.626;23.320;2022-11-20T13:00:21;92350.44;;;12.61;86.73
39789;BME280;25478;42.626;23.320;2022-11-20T13:05:39;92373.13;;;13.02;85.18
39789;BME280;25478;42.626;23.320;2022-11-20T13:08:24;92380.38;;;13.17;84.82
39789;BME280;25478;42.626;23.320;2022-11-20T13:19:12;92433.97;;;12.98;86.28
39789;BME280;25478;42.626;23.320;2022-11-20T13:21:41;92461.75;;;12.83;87.08
39789;BME280;25478;42.626;23.320;2022-11-20T13:26:45;92458.84;;;12.50;88.89
39789;BME280;25478;42.626;23.320;2022-11-20T13:29:16;92476.28;;;12.44;89.73
39789;BME280;25478;42.626;23.320;2022-11-20T13:31:45;92464.28;;;12.39;90.09
39789;BME280;25478;42.626;23.320;2022-11-20T13:34:23;92480.53;;;12.38;89.58
39789;BME280;25478;42.626;23.320;2022-11-20T13:36:51;92486.59;;;12.35;90.13
39789;BME280;25478;42.626;23.320;2022-11-20T13:39:36;92483.59;;;12.36;90.38
39789;BME280;25478;42.626;23.320;2022-11-20T13:42:27;92478.75;;;12.31;90.21
39789;BME280;25478;42.626;23.320;2022-11-20T13:45:01;92476.19;;;12.24;90.66
39789;BME280;25478;42.626;23.320;2022-11-20T13:47:28;92485.47;;;12.36;91.30
39789;BME280;25478;42.626;23.320;2022-11-20T13:49:55;92479.06;;;12.37;91.94
39789;BME280;25478;42.626;23.320;2022-11-20T13:55:29;92475.00;;;12.29;92.43
39789;BME280;25478;42.626;23.320;2022-11-20T13:58:30;92488.22;;;12.29;92.76
39789;BME280;25478;42.626;23.320;2022-11-20T14:01:08;92493.13;;;12.27;93.74
39789;BME280;25478;42.626;23.320;2022-11-20T14:03:35;92489.34;;;12.28;94.04
39789;BME280;25478;42.626;23.320;2022-11-20T14:06:03;92490.09;;;12.28;94.59
39789;BME280;25478;42.626;23.320;2022-11-20T14:08:47;92484.84;;;12.25;94.40
39789;BME280;25478;42.626;23.320;2022-11-20T14:11:19;92481.13;;;12.22;94.89
39789;BME280;25478;42.626;23.320;2022-11-20T14:13:54;92472.47;;;12.22;95.51
39789;BME280;25478;42.626;23.320;2022-11-20T14:16:21;92475.50;;;12.20;95.83
39789;BME280;25478;42.626;23.320;2022-11-20T14:18:46;92475.88;;;12.19;96.17
39789;BME280;25478;42.626;23.320;2022-11-20T14:21:27;92474.41;;;12.18;96.88
39789;BME280;25478;42.626;23.320;2022-11-20T14:24:03;92465.44;;;12.11;96.97
39789;BME280;25478;42.626;23.320;2022-11-20T14:26:29;92465.88;;;12.06;97.53